Time;durP1;ratioP1;P1;durP2;ratioP2;P2;SDS_P1;SDS_P2;PMS_P1;PMS_P2;Temp;Humidity;BMP_temperature;BMP_pressure;BME280_temperature;BME280_humidity;BME280_pressure;Samples;Min_cycle;Max_cycle;Signal;HPM_P1;HPM_P2
2021/11/23 00:01:28;;;;;;;37.00;18.55;;;;;;;2.43;76.35;101709.17;1723903;82;21086;-73
2021/11/23 00:03:53;;;;;;;20.55;10.00;;;;;;;2.47;76.26;101704.30;1714388;82;21993;-73
2021/11/23 00:06:20;;;;;;;16.57;7.78;;;;;;;2.50;76.16;101701.94;1714748;82;21094;-73
2021/11/23 00:08:47;;;;;;;36.88;17.35;;;;;;;2.56;76.07;101702.77;1715043;82;22204;-73
2021/11/23 00:11:17;;;;;;;18.85;9.50;;;;;;;2.61;75.97;101704.39;1715008;82;21189;-73
2021/11/23 00:13:44;;;;;;;21.70;10.65;;;;;;;2.64;75.79;101698.13;1718088;83;21360;-74
2021/11/23 00:16:10;;;;;;;16.55;8.23;;;;;;;2.69;75.71;101704.57;1715442;82;21702;-74
2021/11/23 00:18:37;;;;;;;12.73;7.17;;;;;;;2.74;75.53;101705.81;1715151;82;21533;-74
2021/11/23 00:21:04;;;;;;;9.48;4.78;;;;;;;2.76;75.46;101705.89;1715035;83;21055;-74
2021/11/23 00:23:31;;;;;;;15.05;7.83;;;;;;;2.79;75.20;101713.52;1714969;82;21193;-74
2021/11/23 00:25:59;;;;;;;20.77;11.40;;;;;;;2.85;75.13;101711.75;1715120;83;21083;-74
2021/11/23 00:28:25;;;;;;;9.95;5.15;;;;;;;2.88;74.98;101707.67;1715129;82;21913;-74
2021/11/23 00:30:52;;;;;;;12.00;6.50;;;;;;;2.91;74.79;101705.30;1715293;83;21102;-74
2021/11/23 00:33:21;;;;;;;18.82;8.98;;;;;;;2.93;74.69;101705.42;1714969;83;21078;-74
2021/11/23 00:35:49;;;;;;;13.83;6.17;;;;;;;2.96;74.61;101704.73;1713255;83;22225;-74
2021/11/23 00:38:16;;;;;;;51.30;18.57;;;;;;;2.98;74.41;101713.53;1715164;82;21051;-73
2021/11/23 00:40:43;;;;;;;28.95;11.40;;;;;;;3.00;74.35;101698.94;1715168;82;21765;-73
2021/11/23 00:43:10;;;;;;;21.87;10.03;;;;;;;3.04;74.27;101702.25;1715068;82;21174;-73
2021/11/23 00:45:37;;;;;;;17.00;8.05;;;;;;;3.07;74.18;101700.77;1715023;83;21604;-74
2021/11/23 00:48:06;;;;;;;25.62;11.75;;;;;;;3.08;74.06;101692.59;1715009;82;21465;-76
2021/11/23 00:50:33;;;;;;;19.57;11.35;;;;;;;3.09;74.04;101693.09;1714955;82;21147;-76
2021/11/23 00:53:04;;;;;;;12.58;6.62;;;;;;;3.09;73.94;101687.88;1714828;82;21531;-76
2021/11/23 00:55:35;;;;;;;11.12;5.67;;;;;;;3.07;73.87;101685.17;1714990;82;21086;-76
2021/11/23 00:58:00;;;;;;;12.03;6.53;;;;;;;3.03;73.78;101674.45;1714618;82;21090;-76
2021/11/23 01:00:30;;;;;;;12.73;7.50;;;;;;;2.99;73.70;101665.53;1714890;83;20993;-76
2021/11/23 01:02:58;;;;;;;9.90;5.60;;;;;;;2.91;73.60;101658.50;1717631;83;21063;-76
2021/11/23 01:05:26;;;;;;;15.20;8.45;;;;;;;2.85;73.67;101663.28;1693544;83;21000;-76
2021/11/23 01:07:59;;;;;;;14.93;8.90;;;;;;;2.78;73.68;101651.93;1693456;83;21067;-76
2021/11/23 01:10:23;;;;;;;13.18;7.53;;;;;;;2.75;73.73;101637.81;1714287;82;21064;-75
2021/11/23 01:12:50;;;;;;;9.45;4.58;;;;;;;2.74;73.77;101633.02;1715029;82;21180;-75
2021/11/23 01:15:19;;;;;;;13.78;7.47;;;;;;;2.72;73.82;101630.67;1715059;83;21648;-75
2021/11/23 01:17:46;;;;;;;15.32;7.50;;;;;;;2.72;73.84;101626.41;1715305;83;22448;-75
2021/11/23 01:20:14;;;;;;;9.13;5.17;;;;;;;2.72;73.82;101628.08;1714576;83;21568;-74
2021/11/23 01:22:44;;;;;;;12.70;7.33;;;;;;;2.72;73.83;101624.17;1693211;82;21452;-75
2021/11/23 01:25:15;;;;;;;12.98;7.28;;;;;;;2.73;73.91;101619.09;1693364;83;21059;-74
2021/11/23 01:27:42;;;;;;;11.78;5.37;;;;;;;2.76;73.91;101608.03;1642765;83;21098;-74
2021/11/23 01:30:12;;;;;;;10.82;5.75;;;;;;;2.78;73.96;101599.00;1693336;83;21082;-75
2021/11/23 01:32:39;;;;;;;13.05;6.87;;;;;;;2.80;73.91;101599.64;1714517;82;21083;-75
2021/11/23 01:35:08;;;;;;;11.60;6.90;;;;;;;2.83;73.98;101595.93;1714703;83;21075;-75
2021/11/23 01:37:36;;;;;;;8.53;5.47;;;;;;;2.85;74.00;101590.47;1694389;83;21079;-76
2021/11/23 01:40:10;;;;;;;8.10;5.83;;;;;;;2.88;74.01;101580.26;1694041;83;21058;-76
2021/11/23 01:42:39;;;;;;;7.67;5.08;;;;;;;2.89;73.96;101576.88;1715094;82;21776;-75
2021/11/23 01:45:05;;;;;;;7.15;3.80;;;;;;;2.85;73.89;101568.37;1714713;82;21035;-76
2021/11/23 01:47:38;;;;;;;4.95;3.60;;;;;;;2.84;74.00;101558.75;1694782;83;21569;-76
2021/11/23 01:50:04;;;;;;;6.75;3.70;;;;;;;2.86;74.12;101558.45;1676729;83;22660;-76
2021/11/23 01:52:33;;;;;;;5.95;3.80;;;;;;;2.88;74.23;101543.85;1694388;83;21091;-76
2021/11/23 01:55:02;;;;;;;6.62;4.03;;;;;;;2.93;74.34;101551.98;1715676;83;22286;-76
2021/11/23 01:57:29;;;;;;;8.33;4.22;;;;;;;2.96;74.36;101548.69;1715738;82;21086;-76
2021/11/23 01:59:55;;;;;;;5.37;3.30;;;;;;;2.96;74.36;101547.38;1695078;83;21063;-76
2021/11/23 02:02:24;;;;;;;5.37;2.87;;;;;;;2.98;74.38;101539.28;1698241;83;21058;-76
2021/11/23 02:04:51;;;;;;;9.25;4.03;;;;;;;3.00;74.44;101527.28;1723278;83;21129;-76
2021/11/23 02:07:18;;;;;;;8.08;3.17;;;;;;;3.03;74.49;101518.41;1723105;81;21932;-75
2021/11/23 02:09:46;;;;;;;5.15;2.75;;;;;;;3.07;74.50;101515.20;1722983;82;21078;-76
2021/11/23 02:12:14;;;;;;;6.60;2.72;;;;;;;3.10;74.49;101510.22;1723033;81;21122;-78
2021/11/23 02:14:41;;;;;;;7.17;3.90;;;;;;;3.12;74.53;101511.22;1723064;81;21417;-75
2021/11/23 02:17:10;;;;;;;6.62;3.17;;;;;;;3.16;74.57;101505.42;1722751;82;21070;-75
2021/11/23 02:19:39;;;;;;;8.10;2.98;;;;;;;3.20;74.62;101490.92;1722950;83;21832;-74
2021/11/23 02:22:08;;;;;;;8.50;2.77;;;;;;;3.24;74.67;101486.41;1722888;81;21095;-75
2021/11/23 02:24:34;;;;;;;5.47;2.52;;;;;;;3.25;74.75;101480.02;1722372;81;21059;-75
2021/11/23 02:27:01;;;;;;;9.65;2.52;;;;;;;3.29;74.90;101474.20;1722803;83;21055;-74
2021/11/23 02:29:28;;;;;;;5.28;2.42;;;;;;;3.34;74.99;101471.92;1722852;83;21129;-75
2021/11/23 02:31:54;;;;;;;6.75;2.70;;;;;;;3.35;75.07;101460.70;1722832;82;21751;-76
2021/11/23 02:34:21;;;;;;;6.03;2.12;;;;;;;3.37;75.24;101448.69;1722567;83;21085;-76
2021/11/23 02:36:48;;;;;;;10.18;2.50;;;;;;;3.41;75.41;101451.98;1722577;83;21656;-76
2021/11/23 02:39:15;;;;;;;9.10;2.50;;;;;;;3.48;75.59;101442.47;1722643;82;21043;-76
2021/11/23 02:41:48;;;;;;;5.12;2.05;;;;;;;3.55;75.65;101449.37;1722772;83;21086;-76
2021/11/23 02:44:12;;;;;;;3.40;1.85;;;;;;;3.59;75.73;101440.98;1721939;81;21788;-76
2021/11/23 02:46:42;;;;;;;4.83;1.90;;;;;;;3.63;75.74;101432.56;1722552;81;21211;-75
2021/11/23 02:49:10;;;;;;;8.40;2.00;;;;;;;3.66;75.77;101431.05;1722567;82;21082;-74
2021/11/23 02:51:40;;;;;;;7.58;2.15;;;;;;;3.67;75.81;101431.53;1722993;82;21165;-74
2021/11/23 02:54:05;;;;;;;7.42;2.25;;;;;;;3.72;75.98;101425.71;1722126;82;21572;-74
2021/11/23 02:56:32;;;;;;;4.33;2.15;;;;;;;3.78;76.08;101419.20;1722462;83;21897;-74
2021/11/23 02:58:59;;;;;;;6.05;2.47;;;;;;;3.82;76.07;101413.79;1722585;83;21114;-74
2021/11/23 03:01:27;;;;;;;5.15;2.20;;;;;;;3.85;76.07;101422.70;1703135;83;21119;-74
2021/11/23 03:03:54;;;;;;;5.55;2.30;;;;;;;3.86;76.04;101423.59;1714989;83;21177;-74
2021/11/23 03:06:23;;;;;;;6.65;2.60;;;;;;;3.87;76.08;101421.09;1693878;83;21154;-76
2021/11/23 03:08:56;;;;;;;5.60;2.72;;;;;;;3.89;76.14;101412.07;1714958;82;21753;-76
2021/11/23 03:11:21;;;;;;;6.45;2.87;;;;;;;3.89;76.16;101403.84;1714030;83;21087;-76
2021/11/23 03:13:48;;;;;;;4.75;2.60;;;;;;;3.93;76.21;101402.75;1714904;83;21091;-76
2021/11/23 03:16:15;;;;;;;7.00;3.20;;;;;;;3.96;76.29;101399.01;1715156;82;21075;-76
2021/11/23 03:18:43;;;;;;;8.15;3.45;;;;;;;4.00;76.36;101407.54;1693923;83;21596;-76
2021/11/23 03:21:10;;;;;;;7.10;2.95;;;;;;;4.04;76.41;101411.72;1715185;82;21809;-76
2021/11/23 03:23:41;;;;;;;7.72;3.10;;;;;;;4.08;76.46;101408.90;1715143;83;21549;-76
2021/11/23 03:26:08;;;;;;;6.25;3.00;;;;;;;4.11;76.45;101398.68;1713923;83;21067;-75
2021/11/23 03:28:36;;;;;;;6.50;3.00;;;;;;;4.15;76.46;101398.44;1714877;82;21660;-75
2021/11/23 03:31:02;;;;;;;7.78;3.80;;;;;;;4.14;76.44;101397.95;1714976;82;21074;-76
2021/11/23 03:33:33;;;;;;;5.80;3.75;;;;;;;4.12;76.49;101393.05;1714952;82;21704;-76
2021/11/23 03:35:58;;;;;;;4.17;2.50;;;;;;;4.08;76.50;101386.75;1714289;83;21110;-77
2021/11/23 03:38:27;;;;;;;6.95;3.40;;;;;;;4.07;76.65;101392.38;1715029;83;21004;-76
2021/11/23 03:40:53;;;;;;;5.50;2.75;;;;;;;4.08;76.79;101385.04;1715241;82;21047;-76
2021/11/23 03:43:23;;;;;;;6.95;3.25;;;;;;;4.12;76.86;101390.45;1715163;83;21062;-76
2021/11/23 03:45:49;;;;;;;6.75;3.60;;;;;;;4.14;76.97;101379.30;1714554;83;21788;-76
2021/11/23 03:48:18;;;;;;;6.37;3.47;;;;;;;4.18;77.04;101383.00;1714533;82;21117;-76
2021/11/23 03:50:45;;;;;;;5.70;2.58;;;;;;;4.20;77.03;101380.08;1715081;83;21411;-76
2021/11/23 03:53:12;;;;;;;5.15;2.60;;;;;;;4.19;77.03;101375.70;1714890;83;21544;-76
2021/11/23 03:55:40;;;;;;;7.08;3.33;;;;;;;4.17;77.03;101366.89;1715179;83;21079;-75
2021/11/23 03:58:10;;;;;;;5.22;2.95;;;;;;;4.16;77.19;101376.38;1714938;82;21845;-75
2021/11/23 04:00:41;;;;;;;4.45;2.33;;;;;;;4.18;77.43;101380.39;1714810;83;21075;-75
2021/11/23 04:03:07;;;;;;;4.05;2.47;;;;;;;4.20;77.56;101380.97;1718193;82;21831;-74
2021/11/23 04:05:35;;;;;;;6.67;3.52;;;;;;;4.25;77.70;101390.39;1714827;83;21144;-74
2021/11/23 04:08:01;;;;;;;5.75;3.00;;;;;;;4.30;77.82;101386.36;1715087;82;22221;-74
2021/11/23 04:10:33;;;;;;;5.00;2.77;;;;;;;4.34;77.84;101389.64;1714495;83;21071;-75
2021/11/23 04:12:58;;;;;;;3.58;2.35;;;;;;;4.36;77.80;101381.92;1714337;82;21359;-75
2021/11/23 04:15:27;;;;;;;10.30;5.92;;;;;;;4.34;77.73;101387.04;1693467;83;21000;-75
2021/11/23 04:17:54;;;;;;;8.60;4.20;;;;;;;4.31;77.79;101388.55;1715067;82;21086;-75
2021/11/23 04:20:27;;;;;;;7.25;3.80;;;;;;;4.27;77.86;101387.47;1715042;83;21700;-74
2021/11/23 04:22:52;;;;;;;8.93;3.50;;;;;;;4.22;77.87;101384.98;1714255;83;21802;-76
2021/11/23 04:25:19;;;;;;;6.97;3.45;;;;;;;4.19;77.96;101386.12;1714929;83;22345;-74
2021/11/23 04:27:46;;;;;;;4.33;2.80;;;;;;;4.13;77.99;101391.85;1715377;82;21062;-74
2021/11/23 04:30:15;;;;;;;7.35;3.52;;;;;;;4.07;78.04;101386.24;1714945;82;21086;-74
2021/11/23 04:32:43;;;;;;;3.90;3.37;;;;;;;4.00;78.12;101390.20;1715226;82;21129;-74
2021/11/23 04:35:12;;;;;;;6.50;4.00;;;;;;;3.95;78.20;101402.02;1694032;83;21407;-74
2021/11/23 04:37:39;;;;;;;5.85;3.20;;;;;;;3.88;78.32;101413.75;1715057;82;21613;-74
2021/11/23 04:40:09;;;;;;;5.37;2.98;;;;;;;3.82;78.44;101404.67;1714784;82;21059;-74
2021/11/23 04:42:36;;;;;;;5.62;2.87;;;;;;;3.77;78.60;101406.08;1715072;83;21078;-74
2021/11/23 04:45:06;;;;;;;8.65;3.25;;;;;;;3.73;78.74;101409.30;1694155;82;21091;-74
2021/11/23 04:47:36;;;;;;;4.17;2.98;;;;;;;3.69;78.93;101403.89;1682959;85;22741;-74
2021/11/23 04:50:07;;;;;;;6.15;3.10;;;;;;;3.70;79.08;101403.10;1745180;82;21588;-75
2021/11/23 04:52:34;;;;;;;6.47;2.83;;;;;;;3.70;79.13;101401.80;1744922;82;21082;-74
2021/11/23 04:55:05;;;;;;;6.30;2.62;;;;;;;3.71;79.16;101402.69;1744632;82;21074;-74
2021/11/23 04:57:30;;;;;;;5.33;2.87;;;;;;;3.69;79.22;101401.28;1742025;81;21575;-74
2021/11/23 05:00:01;;;;;;;7.92;2.83;;;;;;;3.69;79.35;101397.38;1715029;83;21792;-73
2021/11/23 05:02:26;;;;;;;6.62;3.20;;;;;;;3.75;79.56;101402.48;1714439;83;21801;-75
2021/11/23 05:04:53;;;;;;;3.95;2.75;;;;;;;3.80;79.66;101401.08;1722528;83;21049;-77
2021/11/23 05:07:27;;;;;;;5.53;3.12;;;;;;;3.87;79.74;101406.77;1722743;83;21076;-73
2021/11/23 05:09:48;;;;;;;3.40;2.50;;;;;;;3.91;79.76;101403.95;1719551;81;21078;-74
2021/11/23 05:12:15;;;;;;;4.78;2.47;;;;;;;3.94;79.73;101401.55;1722493;83;22635;-75
2021/11/23 05:14:42;;;;;;;3.90;2.33;;;;;;;3.96;79.71;101400.31;1722132;83;21134;-74
2021/11/23 05:17:08;;;;;;;4.95;2.60;;;;;;;4.00;79.94;101396.70;1722390;83;21078;-74
2021/11/23 05:19:37;;;;;;;3.87;2.40;;;;;;;4.09;79.95;101394.67;1722487;83;21142;-76
2021/11/23 05:22:08;;;;;;;2.90;2.40;;;;;;;4.17;79.87;101402.95;1722438;83;21093;-75
2021/11/23 05:24:35;;;;;;;3.10;2.50;;;;;;;4.19;79.78;101403.95;1722623;83;21782;-75
2021/11/23 05:27:02;;;;;;;5.17;2.77;;;;;;;4.25;79.94;101408.22;1721649;83;21070;-75
2021/11/23 05:29:29;;;;;;;5.60;4.20;;;;;;;4.33;80.01;101404.77;1722181;83;21047;-76
2021/11/23 05:31:59;;;;;;;6.10;5.50;;;;;;;4.41;80.01;101403.92;1693147;83;21086;-82
2021/11/23 05:34:28;;;;;;;7.50;6.15;;;;;;;4.42;79.82;101401.42;1722263;83;21125;-78
2021/11/23 05:36:55;;;;;;;8.30;6.35;;;;;;;4.41;79.75;101413.05;1722264;83;21734;-79
2021/11/23 05:39:22;;;;;;;10.75;7.12;;;;;;;4.42;79.95;101408.35;1721719;83;21631;-76
2021/11/23 05:41:54;;;;;;;10.25;6.42;;;;;;;4.51;80.10;101409.31;1721866;83;21074;-74
2021/11/23 05:44:17;;;;;;;7.12;4.33;;;;;;;4.58;80.14;101402.33;1692680;83;21493;-74
2021/11/23 05:46:44;;;;;;;5.35;3.60;;;;;;;4.64;80.14;101404.02;1722044;83;21090;-75
2021/11/23 05:49:11;;;;;;;3.75;2.87;;;;;;;4.70;80.07;101401.77;1722012;83;21737;-78
2021/11/23 05:51:40;;;;;;;4.72;2.85;;;;;;;4.75;80.12;101400.34;1721984;83;21142;-78
2021/11/23 05:54:08;;;;;;;5.33;3.10;;;;;;;4.82;80.10;101405.11;1720966;83;21651;-78
2021/11/23 05:56:35;;;;;;;4.10;3.27;;;;;;;4.85;80.27;101410.91;1721919;83;22311;-78
2021/11/23 05:59:02;;;;;;;4.20;3.00;;;;;;;4.96;80.42;101419.36;1721664;83;21089;-78
2021/11/23 06:01:29;;;;;;;3.98;3.00;;;;;;;5.03;80.27;101424.10;1721893;83;22097;-78
2021/11/23 06:03:58;;;;;;;4.80;3.65;;;;;;;5.09;80.15;101427.47;1717512;83;21058;-78
2021/11/23 06:06:25;;;;;;;5.97;3.85;;;;;;;5.13;80.09;101431.67;1714008;83;21094;-78
2021/11/23 06:08:52;;;;;;;5.60;3.98;;;;;;;5.17;80.12;101440.16;1714108;83;21074;-78
2021/11/23 06:11:23;;;;;;;4.10;3.30;;;;;;;5.22;80.17;101438.73;1682881;83;21105;-78
2021/11/23 06:13:49;;;;;;;3.65;2.50;;;;;;;5.28;80.16;101445.12;1713937;83;23385;-78
2021/11/23 06:16:16;;;;;;;4.37;2.45;;;;;;;5.33;80.29;101447.56;1714080;83;21077;-79
2021/11/23 06:18:42;;;;;;;4.72;2.40;;;;;;;5.43;80.57;101445.99;1714363;82;21141;-75
2021/11/23 06:21:13;;;;;;;3.90;2.12;;;;;;;5.50;80.62;101452.06;1718885;82;21355;-74
2021/11/23 06:23:38;;;;;;;3.08;2.20;;;;;;;5.58;80.72;101459.02;1723649;82;21062;-74
2021/11/23 06:26:04;;;;;;;3.35;2.20;;;;;;;5.68;80.75;101468.27;1728105;82;21709;-71
2021/11/23 06:28:31;;;;;;;4.45;2.33;;;;;;;5.73;80.75;101463.80;1744896;82;21036;-72
2021/11/23 06:31:00;;;;;;;4.70;2.52;;;;;;;5.80;80.79;101476.77;1653490;84;21137;-71
2021/11/23 06:33:27;;;;;;;4.65;2.85;;;;;;;5.87;80.81;101480.22;1745130;81;21120;-72
2021/11/23 06:35:53;;;;;;;6.10;2.90;;;;;;;5.90;80.76;101479.09;1744692;82;21112;-74
2021/11/23 06:38:20;;;;;;;3.10;1.98;;;;;;;5.95;80.78;101482.91;1744810;82;21771;-72
2021/11/23 06:40:47;;;;;;;2.80;1.72;;;;;;;6.00;80.85;101481.42;1744834;82;21082;-72
2021/11/23 06:43:13;;;;;;;1.80;1.70;;;;;;;6.08;80.86;101491.02;1744869;82;21039;-72
2021/11/23 06:45:40;;;;;;;2.70;1.70;;;;;;;6.11;80.76;101491.59;1744758;81;21082;-72
2021/11/23 06:48:08;;;;;;;3.33;1.98;;;;;;;6.13;80.79;101499.99;1744759;82;21514;-72
2021/11/23 06:50:35;;;;;;;2.65;1.67;;;;;;;6.18;80.81;101498.95;1745085;82;21776;-72
2021/11/23 06:53:04;;;;;;;3.33;2.08;;;;;;;6.21;80.79;101506.95;1682916;85;21605;-72
2021/11/23 06:55:30;;;;;;;2.50;1.40;;;;;;;6.25;80.81;101507.63;1744970;82;21058;-72
2021/11/23 06:58:00;;;;;;;2.12;1.50;;;;;;;6.29;80.81;101513.52;1682923;84;21134;-72
2021/11/23 07:00:26;;;;;;;2.17;1.67;;;;;;;6.32;80.75;101516.27;1744349;82;21046;-72
2021/11/23 07:02:52;;;;;;;6.22;3.37;;;;;;;6.33;80.71;101516.78;1683065;85;22543;-72
2021/11/23 07:05:20;;;;;;;5.30;2.37;;;;;;;6.38;80.75;101513.09;1744387;81;21066;-72
2021/11/23 07:07:47;;;;;;;9.63;7.20;;;;;;;6.41;80.66;101512.85;1744418;82;21078;-72
2021/11/23 07:10:14;;;;;;;3.72;3.10;;;;;;;6.47;80.61;101508.78;1744674;82;21293;-73
2021/11/23 07:12:42;;;;;;;12.98;7.87;;;;;;;6.39;80.25;101502.72;1744921;82;21066;-72
2021/11/23 07:15:09;;;;;;;14.95;9.13;;;;;;;6.29;79.98;101487.37;1682824;85;21967;-73
2021/11/23 07:17:36;;;;;;;11.35;9.60;;;;;;;6.18;79.97;101483.27;1744691;82;21069;-72
2021/11/23 07:20:06;;;;;;;31.10;17.77;;;;;;;6.08;79.99;101483.56;1652876;85;21604;-73
2021/11/23 07:22:32;;;;;;;77.45;37.78;;;;;;;6.00;80.12;101472.70;1744647;82;21083;-73
2021/11/23 07:24:59;;;;;;;26.50;16.62;;;;;;;5.95;80.23;101473.77;1744737;82;21568;-72
2021/11/23 07:27:26;;;;;;;9.50;7.03;;;;;;;5.90;80.32;101486.05;1744508;82;21834;-72
2021/11/23 07:29:52;;;;;;;6.47;4.30;;;;;;;5.82;80.35;101493.05;1744618;82;21144;-72
2021/11/23 07:32:19;;;;;;;3.98;2.20;;;;;;;5.80;80.52;101502.52;1744824;82;21074;-72
2021/11/23 07:34:46;;;;;;;2.77;1.70;;;;;;;5.79;80.66;101512.88;1744748;82;21074;-73
2021/11/23 07:37:12;;;;;;;4.90;2.12;;;;;;;5.81;80.79;101533.45;1682914;85;21584;-72
2021/11/23 07:39:39;;;;;;;2.85;1.80;;;;;;;5.84;80.92;101533.22;1744811;82;21757;-72
2021/11/23 07:42:06;;;;;;;2.87;1.87;;;;;;;5.89;81.04;101541.72;1744616;82;21118;-73
2021/11/23 07:44:33;;;;;;;4.35;2.80;;;;;;;5.97;81.23;101546.61;1744758;82;21114;-73
2021/11/23 07:46:59;;;;;;;3.02;2.42;;;;;;;6.18;81.61;101554.74;1744700;82;21122;-73
2021/11/23 07:49:26;;;;;;;3.92;2.90;;;;;;;6.41;81.62;101557.31;1744977;82;21133;-72
2021/11/23 07:51:52;;;;;;;6.22;2.50;;;;;;;6.58;81.42;101561.26;1682968;84;22582;-72
2021/11/23 07:54:19;;;;;;;3.87;2.83;;;;;;;6.71;81.21;101561.52;1744640;82;21058;-72
2021/11/23 07:56:46;;;;;;;5.08;3.10;;;;;;;6.83;81.13;101567.80;1744766;81;21054;-73
2021/11/23 07:59:13;;;;;;;3.83;2.70;;;;;;;6.92;80.87;101573.53;1744822;82;21058;-73
2021/11/23 08:01:39;;;;;;;5.35;3.20;;;;;;;6.97;80.70;101572.06;1683018;84;21114;-72
2021/11/23 08:04:06;;;;;;;5.87;3.27;;;;;;;7.01;80.58;101578.83;1747235;81;21746;-73
2021/11/23 08:06:33;;;;;;;5.28;3.50;;;;;;;7.09;80.60;101596.25;1752549;81;21114;-72
2021/11/23 08:08:59;;;;;;;6.85;3.37;;;;;;;7.09;80.21;101586.20;1752831;81;21089;-73
2021/11/23 08:11:26;;;;;;;6.87;4.20;;;;;;;7.11;80.31;101596.34;1752829;81;22298;-72
2021/11/23 08:13:53;;;;;;;6.60;4.12;;;;;;;7.15;80.27;101595.28;1752923;81;21011;-72
2021/11/23 08:16:22;;;;;;;11.12;4.25;;;;;;;7.18;80.10;101598.05;1752702;81;21788;-73
2021/11/23 08:18:48;;;;;;;5.65;4.22;;;;;;;7.19;80.13;101596.34;1690463;84;22181;-73
2021/11/23 08:21:15;;;;;;;7.97;4.58;;;;;;;7.26;80.10;101599.75;1719381;83;21130;-73
2021/11/23 08:23:42;;;;;;;8.23;4.30;;;;;;;7.33;80.07;101591.39;1719352;83;21154;-73
2021/11/23 08:26:08;;;;;;;6.70;4.05;;;;;;;7.38;79.96;101592.96;1719138;83;21066;-73
2021/11/23 08:28:37;;;;;;;7.80;3.87;;;;;;;7.49;80.05;101585.63;1719277;83;22599;-72
2021/11/23 08:31:03;;;;;;;8.18;4.15;;;;;;;7.54;79.63;101586.77;1719003;83;21071;-73
2021/11/23 08:33:30;;;;;;;6.55;2.92;;;;;;;7.55;79.56;101589.89;1719240;83;21086;-73
2021/11/23 08:35:57;;;;;;;8.95;3.47;;;;;;;7.58;79.18;101592.64;1719178;83;21094;-75
2021/11/23 08:38:23;;;;;;;11.30;3.58;;;;;;;7.58;78.90;101591.33;1719260;83;21591;-73
2021/11/23 08:40:50;;;;;;;12.10;4.65;;;;;;;7.59;78.97;101594.45;1719094;83;22591;-73
2021/11/23 08:43:17;;;;;;;22.85;14.68;;;;;;;7.63;78.89;101596.83;1718920;83;21082;-73
2021/11/23 08:45:45;;;;;;;12.55;7.60;;;;;;;7.67;78.80;101597.46;1718955;83;21089;-73
2021/11/23 08:48:13;;;;;;;7.70;4.03;;;;;;;7.71;78.74;101601.61;1718691;83;21066;-73
2021/11/23 08:50:43;;;;;;;8.30;5.17;;;;;;;7.73;78.58;101606.55;1718943;83;21069;-73
2021/11/23 08:53:09;;;;;;;9.43;3.95;;;;;;;7.72;78.33;101613.02;1718561;83;21790;-74
2021/11/23 08:55:36;;;;;;;15.13;7.10;;;;;;;7.73;78.30;101618.72;1719182;83;21090;-73
2021/11/23 08:58:07;;;;;;;8.63;5.05;;;;;;;7.76;78.29;101628.06;1719069;83;21134;-73
2021/11/23 09:00:34;;;;;;;7.10;2.90;;;;;;;7.78;78.07;101626.41;1719247;83;21497;-73
2021/11/23 09:03:01;;;;;;;12.25;6.15;;;;;;;7.74;77.89;101635.84;1719200;83;21127;-73
2021/11/23 09:05:36;;;;;;;9.33;3.17;;;;;;;7.73;77.83;101637.99;1719022;83;21776;-73
2021/11/23 09:08:02;;;;;;;10.98;6.12;;;;;;;7.75;77.79;101649.84;1717340;83;21122;-73
2021/11/23 09:10:31;;;;;;;7.47;3.20;;;;;;;7.74;77.63;101653.30;1719186;83;21062;-74
2021/11/23 09:12:59;;;;;;;6.05;2.70;;;;;;;7.74;77.55;101654.19;1719145;83;21063;-74
2021/11/23 09:15:27;;;;;;;8.98;3.08;;;;;;;7.75;77.53;101657.31;1718671;83;21435;-74
2021/11/23 09:17:55;;;;;;;6.72;2.70;;;;;;;7.78;77.44;101661.38;1718943;83;21756;-74
2021/11/23 09:20:22;;;;;;;9.55;4.70;;;;;;;7.76;77.32;101664.34;1719285;83;21059;-74
2021/11/23 09:22:49;;;;;;;8.83;2.77;;;;;;;7.79;77.36;101664.50;1719339;83;21082;-74
2021/11/23 09:25:17;;;;;;;6.92;3.58;;;;;;;7.79;77.22;101664.92;1719016;83;21086;-74
2021/11/23 09:27:43;;;;;;;6.47;4.05;;;;;;;7.72;76.84;101666.73;1719031;83;21089;-74
2021/11/23 09:30:13;;;;;;;8.40;4.25;;;;;;;7.61;76.83;101663.55;1719133;83;22476;-74
2021/11/23 09:32:40;;;;;;;12.90;6.55;;;;;;;7.56;77.00;101663.34;1719317;83;22370;-74
2021/11/23 09:35:09;;;;;;;9.93;5.78;;;;;;;7.54;77.05;101670.19;1719238;83;21055;-74
2021/11/23 09:37:35;;;;;;;13.15;4.65;;;;;;;7.52;76.89;101664.39;1719438;83;21241;-74
2021/11/23 09:40:02;;;;;;;10.85;3.20;;;;;;;7.53;76.98;101663.58;1719218;83;21121;-74
2021/11/23 09:42:29;;;;;;;7.15;2.62;;;;;;;7.52;76.84;101671.83;1718983;83;22592;-74
2021/11/23 09:44:57;;;;;;;10.43;3.85;;;;;;;7.50;76.96;101669.54;1718656;83;21141;-73
2021/11/23 09:47:27;;;;;;;10.18;3.12;;;;;;;7.56;76.91;101676.82;1719055;83;21070;-74
2021/11/23 09:49:55;;;;;;;7.10;2.80;;;;;;;7.61;76.77;101677.08;1719260;83;21564;-73
2021/11/23 09:52:22;;;;;;;8.15;3.62;;;;;;;7.66;76.68;101687.36;1719226;83;21118;-74
2021/11/23 09:54:49;;;;;;;7.10;3.40;;;;;;;7.71;76.40;101680.23;1719244;83;21788;-74
2021/11/23 09:57:15;;;;;;;10.35;3.22;;;;;;;7.80;76.34;101687.67;1719105;83;21058;-74
2021/11/23 09:59:42;;;;;;;14.18;7.40;;;;;;;7.88;76.19;101687.67;1719240;83;21126;-74
2021/11/23 10:02:09;;;;;;;15.65;6.05;;;;;;;7.93;75.92;101695.75;1719197;83;21114;-74
2021/11/23 10:04:37;;;;;;;8.78;3.40;;;;;;;7.95;75.57;101692.80;1717528;83;21070;-74
2021/11/23 10:07:10;;;;;;;7.30;3.10;;;;;;;7.99;75.52;101690.81;1744966;82;21789;-74
2021/11/23 10:09:40;;;;;;;8.90;4.47;;;;;;;8.05;75.51;101692.45;1745011;81;21520;-74
2021/11/23 10:12:22;;;;;;;5.97;2.72;;;;;;;8.10;75.18;101692.67;1683166;85;21090;-74
2021/11/23 10:15:25;;;;;;;4.20;2.40;;;;;;;8.09;74.96;101698.34;1744968;81;21596;-74
2021/11/23 10:17:55;;;;;;;8.60;2.65;;;;;;;8.09;74.99;101704.89;1651042;84;21150;-74
2021/11/23 10:20:37;;;;;;;6.75;2.90;;;;;;;8.10;74.69;101713.66;1744729;82;21766;-74
2021/11/23 10:23:17;;;;;;;9.90;3.35;;;;;;;8.05;74.36;101711.20;1682743;84;21031;-74
2021/11/23 10:25:44;;;;;;;9.33;3.33;;;;;;;7.96;74.33;101706.41;1744814;81;21078;-74
2021/11/23 10:28:10;;;;;;;9.23;4.55;;;;;;;7.91;74.37;101713.13;1744559;81;21137;-74
2021/11/23 10:30:46;;;;;;;7.53;3.00;;;;;;;7.89;74.29;101713.47;1744887;81;21075;-74
2021/11/23 10:33:13;;;;;;;9.95;4.33;;;;;;;7.89;74.38;101718.30;1682956;85;22472;-74
2021/11/23 10:35:40;;;;;;;11.20;3.00;;;;;;;7.94;74.26;101722.48;1744905;82;21074;-73
2021/11/23 10:38:10;;;;;;;8.15;4.35;;;;;;;7.95;74.07;101728.19;1683068;85;21095;-74
2021/11/23 10:40:40;;;;;;;10.05;3.45;;;;;;;7.94;73.85;101724.67;1745190;82;21071;-74
2021/11/23 10:43:11;;;;;;;7.83;3.02;;;;;;;7.93;73.73;101732.04;1744858;82;21078;-74
2021/11/23 10:45:44;;;;;;;9.63;2.92;;;;;;;7.92;73.69;101724.09;1744897;81;22602;-74
2021/11/23 10:48:12;;;;;;;7.65;2.50;;;;;;;7.87;73.53;101706.83;1679200;85;25518;-74
2021/11/23 10:50:41;;;;;;;11.25;2.75;;;;;;;7.88;73.44;101721.75;1745044;82;21047;-74
2021/11/23 10:53:12;;;;;;;7.80;3.00;;;;;;;7.91;73.34;101719.27;1744871;82;21177;-73
2021/11/23 10:55:41;;;;;;;12.40;2.83;;;;;;;7.91;73.24;101723.62;1682911;85;21611;-73
2021/11/23 10:58:10;;;;;;;11.60;3.35;;;;;;;7.91;73.32;101721.89;1744620;82;22595;-73
2021/11/23 11:00:40;;;;;;;10.65;2.52;;;;;;;7.92;73.15;101723.70;1682737;85;21066;-73
2021/11/23 11:03:06;;;;;;;10.82;3.05;;;;;;;7.92;72.64;101725.40;1744872;82;21580;-73
2021/11/23 11:05:39;;;;;;;6.87;2.58;;;;;;;7.86;72.59;101725.09;1744622;81;21042;-73
2021/11/23 11:08:06;;;;;;;13.13;4.50;;;;;;;7.85;72.31;101729.45;1713503;82;21062;-73
2021/11/23 11:10:33;;;;;;;10.63;4.22;;;;;;;7.87;72.50;101733.05;1682634;85;22626;-73
2021/11/23 11:13:02;;;;;;;11.22;2.67;;;;;;;7.91;72.49;101731.06;1744738;81;21106;-73
2021/11/23 11:15:44;;;;;;;9.63;4.10;;;;;;;7.92;72.34;101732.88;1744860;81;21595;-73
2021/11/23 11:18:13;;;;;;;8.45;3.08;;;;;;;7.95;72.32;101742.19;1744829;82;21188;-74
2021/11/23 11:20:46;;;;;;;13.03;8.25;;;;;;;7.97;72.17;101743.17;1682862;85;21090;-73
2021/11/23 11:23:27;;;;;;;8.15;2.20;;;;;;;8.03;72.12;101749.55;1745119;82;21766;-73
2021/11/23 11:26:28;;;;;;;7.78;2.83;;;;;;;8.05;71.81;101750.53;1649293;85;21082;-73
2021/11/23 11:28:45;;;;;;;6.97;2.33;;;;;;;8.08;71.86;101762.08;1732786;82;21058;-73
2021/11/23 11:31:38;;;;;;;9.00;2.47;;;;;;;8.12;71.82;101745.67;1744885;82;21192;-73
2021/11/23 11:34:28;;;;;;;12.90;7.58;;;;;;;8.16;71.62;101748.97;1683090;85;21102;-73
2021/11/23 11:37:17;;;;;;;7.10;2.80;;;;;;;8.17;71.62;101753.38;1744769;81;21763;-72